Wetterdaten: aktuell Montag, 01.05.2017 02:15
Datum Zeit Temp. A. Feuchte A. Luftdruck Regen Wind Richtung Richtung Taupunkt Windchill Windben
01.05.2017 02:15 10,9 C 56 % 1007,3 hPa 0,0 l/m 6,9 km/h (2 Bft) W-NW 286 2,5 C 10,6 C 22,5 km/h (4 Bft)
01.05.2017 02:02 11,2 C 55 % 1007,4 hPa 0,0 l/m 6,2 km/h (2 Bft) W-SW 258 2,5 C 11,2 C 24,1 km/h (4 Bft)
01.05.2017 01:45 11,6 C 54 % 1007,5 hPa 0,0 l/m 8,2 km/h (2 Bft) W 261 2,6 C 10,4 C 27,4 km/h (4 Bft)
01.05.2017 01:31 11,7 C 53 % 1007,5 hPa 0,0 l/m 7,6 km/h (2 Bft) W-NW 288 2,4 C 10,9 C 24,1 km/h (4 Bft)
01.05.2017 01:15 12,0 C 52 % 1007,7 hPa 0,0 l/m 9,4 km/h (2 Bft) W-SW 252 2,5 C 10,1 C 25,7 km/h (4 Bft)
01.05.2017 01:00 12,1 C 52 % 1007,6 hPa 0,0 l/m 9,9 km/h (2 Bft) W 275 2,5 C 10,0 C 29,0 km/h (5 Bft)
01.05.2017 00:45 12,2 C 52 % 1007,8 hPa 0,0 l/m 11,1 km/h (2 Bft) W-SW 237 2,6 C 9,5 C 29,0 km/h (5 Bft)
01.05.2017 00:30 12,2 C 52 % 1007,9 hPa 0,0 l/m 10,6 km/h (2 Bft) W 280 2,6 C 9,7 C 29,0 km/h (5 Bft)
01.05.2017 00:15 12,2 C 52 % 1007,8 hPa 0,0 l/m 10,9 km/h (2 Bft) W 265 2,6 C 9,6 C 32,2 km/h (5 Bft)
01.05.2017 00:01 12,2 C 52 % 1007,7 hPa 0,0 l/m 10,0 km/h (2 Bft) W 270 2,6 C 10,0 C 25,7 km/h (4 Bft)
30.04.2017 23:45 12,3 C 52 % 1007,9 hPa 0,0 l/m 8,5 km/h (2 Bft) W 265 2,7 C 11,0 C 30,6 km/h (5 Bft)
30.04.2017 23:30 12,4 C 53 % 1008,0 hPa 0,0 l/m 7,9 km/h (2 Bft) W 281 3,1 C 11,4 C 24,1 km/h (4 Bft)
30.04.2017 23:15 12,5 C 53 % 1008,2 hPa 0,0 l/m 8,4 km/h (2 Bft) W-SW 254 3,2 C 11,2 C 27,4 km/h (4 Bft)
30.04.2017 23:00 12,7 C 52 % 1008,2 hPa 0,0 l/m 7,8 km/h (2 Bft) W-SW 247 3,1 C 11,8 C 24,1 km/h (4 Bft)
30.04.2017 22:45 12,8 C 52 % 1008,3 hPa 0,0 l/m 7,3 km/h (2 Bft) W-NW 282 3,2 C 12,2 C 22,5 km/h (4 Bft)
30.04.2017 22:30 13,4 C 49 % 1008,3 hPa 0,0 l/m 7,6 km/h (2 Bft) W-SW 258 2,9 C 12,7 C 25,7 km/h (4 Bft)
30.04.2017 22:15 13,9 C 48 % 1008,3 hPa 0,0 l/m 9,4 km/h (2 Bft) W-SW 252 3,1 C 12,2 C 25,7 km/h (4 Bft)
30.04.2017 22:00 14,1 C 47 % 1008,3 hPa 0,0 l/m 10,9 km/h (2 Bft) W 272 3,0 C 11,7 C 29,0 km/h (5 Bft)
30.04.2017 21:45 14,3 C 48 % 1008,3 hPa 0,0 l/m 9,0 km/h (2 Bft) W 270 3,4 C 12,8 C 30,6 km/h (5 Bft)
30.04.2017 21:30 14,4 C 47 % 1008,4 hPa 0,0 l/m 8,5 km/h (2 Bft) W-NW 303 3,2 C 13,2 C 24,1 km/h (4 Bft)
30.04.2017 21:15 14,7 C 47 % 1008,3 hPa 0,0 l/m 6,4 km/h (2 Bft) W 263 3,5 C 14,7 C 20,9 km/h (4 Bft)
30.04.2017 21:00 14,9 C 46 % 1008,2 hPa 0,0 l/m 5,6 km/h (1 Bft) W 263 3,4 C 14,9 C 19,3 km/h (3 Bft)
30.04.2017 20:46 15,3 C 45 % 1008,1 hPa 0,0 l/m 6,5 km/h (2 Bft) W 270 3,4 C 15,3 C 19,3 km/h (3 Bft)
30.04.2017 20:30 15,6 C 44 % 1008,1 hPa 0,0 l/m 7,6 km/h (2 Bft) W 276 3,4 C 14,9 C 24,1 km/h (4 Bft)
30.04.2017 20:15 15,9 C 43 % 1008,0 hPa 0,0 l/m 10,2 km/h (2 Bft) W-SW 258 3,3 C 14,0 C 29,0 km/h (5 Bft)
30.04.2017 20:00 16,2 C 43 % 1008,0 hPa 0,0 l/m 12,0 km/h (2 Bft) W 270 3,6 C 13,7 C 30,6 km/h (5 Bft)
30.04.2017 19:46 16,4 C 41 % 1007,8 hPa 0,0 l/m 12,3 km/h (3 Bft) NW 304 3,1 C 13,8 C 30,6 km/h (5 Bft)
30.04.2017 19:30 16,6 C 42 % 1007,7 hPa 0,0 l/m 11,7 km/h (2 Bft) W-SW 245 3,6 C 14,2 C 33,8 km/h (5 Bft)
30.04.2017 19:15 16,7 C 41 % 1008,0 hPa 0,0 l/m 11,1 km/h (2 Bft) W 279 3,4 C 14,6 C 27,4 km/h (4 Bft)
30.04.2017 19:03 16,7 C 41 % 1008,0 hPa 0,0 l/m 12,4 km/h (3 Bft) W 280 3,4 C 14,1 C 32,2 km/h (5 Bft)
30.04.2017 18:45 16,8 C 41 % 1008,1 hPa 0,0 l/m 13,2 km/h (3 Bft) W-SW 255 3,5 C 13,9 C 29,0 km/h (5 Bft)
30.04.2017 18:32 16,9 C 42 % 1008,2 hPa 0,0 l/m 13,1 km/h (3 Bft) W-NW 292 3,9 C 14,1 C 33,8 km/h (5 Bft)
30.04.2017 18:15 16,8 C 42 % 1008,5 hPa 0,0 l/m 15,8 km/h (3 Bft) W-SW 242 3,8 C 13,1 C 30,6 km/h (5 Bft)
30.04.2017 18:01 16,8 C 42 % 1008,9 hPa 0,0 l/m 17,1 km/h (3 Bft) W-NW 303 3,8 C 12,8 C 32,2 km/h (5 Bft)
30.04.2017 17:45 16,8 C 42 % 1008,9 hPa 0,0 l/m 16,1 km/h (3 Bft) W 275 3,8 C 13,1 C 40,2 km/h (6 Bft)
30.04.2017 17:30 17,1 C 41 % 1009,2 hPa 0,0 l/m 16,5 km/h (3 Bft) NW 312 3,7 C 13,3 C 33,8 km/h (5 Bft)
30.04.2017 17:15 17,2 C 40 % 1009,3 hPa 0,0 l/m 15,1 km/h (3 Bft) W-NW 284 3,5 C 13,8 C 35,4 km/h (5 Bft)
30.04.2017 17:02 17,2 C 40 % 1009,5 hPa 0,0 l/m 12,1 km/h (2 Bft) W 270 3,5 C 14,8 C 16,1 km/h (3 Bft)
30.04.2017 17:01 17,3 C 40 % 1009,5 hPa 0,0 l/m 16,7 km/h (3 Bft) W 269 3,6 C 13,5 C 33,8 km/h (5 Bft)
30.04.2017 16:45 17,3 C 39 % 1009,8 hPa 0,0 l/m 16,1 km/h (3 Bft) NW 308 3,2 C 13,7 C 35,4 km/h (5 Bft)
30.04.2017 16:30 17,3 C 41 % 1009,8 hPa 0,0 l/m 12,8 km/h (3 Bft) W-NW 284 3,9 C 14,7 C 38,6 km/h (5 Bft)
30.04.2017 16:15 17,2 C 40 % 1010,0 hPa 0,0 l/m 16,7 km/h (3 Bft) W-NW 291 3,5 C 13,4 C 46,7 km/h (6 Bft)
30.04.2017 16:00 16,8 C 41 % 1010,2 hPa 0,0 l/m 20,8 km/h (4 Bft) NW 312 3,5 C 11,9 C 49,9 km/h (6 Bft)
30.04.2017 15:45 16,9 C 42 % 1010,3 hPa 0,0 l/m 15,8 km/h (3 Bft) W 265 3,9 C 13,3 C 32,2 km/h (5 Bft)
30.04.2017 15:30 16,4 C 42 % 1010,8 hPa 0,0 l/m 17,3 km/h (3 Bft) NW 308 3,5 C 12,2 C 35,4 km/h (5 Bft)
30.04.2017 15:15 17,1 C 42 % 1010,7 hPa 0,0 l/m 16,9 km/h (3 Bft) NW 308 4,1 C 13,2 C 38,6 km/h (5 Bft)
30.04.2017 15:00 16,8 C 42 % 1011,0 hPa 0,0 l/m 16,0 km/h (3 Bft) NW 314 3,8 C 13,1 C 35,4 km/h (5 Bft)
30.04.2017 14:45 16,6 C 42 % 1011,4 hPa 0,0 l/m 17,1 km/h (3 Bft) N-NW 346 3,6 C 12,5 C 35,4 km/h (5 Bft)
30.04.2017 14:31 16,5 C 44 % 1011,5 hPa 0,0 l/m 16,3 km/h (3 Bft) W-SW 254 4,2 C 12,6 C 32,2 km/h (5 Bft)
30.04.2017 14:15 16,6 C 44 % 1011,8 hPa 0,0 l/m 15,7 km/h (3 Bft) W-NW 301 4,3 C 12,9 C 32,2 km/h (5 Bft)
30.04.2017 14:00 16,4 C 42 % 1011,8 hPa 0,0 l/m 15,4 km/h (3 Bft) W 279 3,5 C 12,8 C 30,6 km/h (5 Bft)
30.04.2017 13:45 16,3 C 44 % 1012,1 hPa 0,0 l/m 14,9 km/h (3 Bft) W-SW 244 4,0 C 12,8 C 32,2 km/h (5 Bft)
30.04.2017 13:31 15,9 C 43 % 1012,3 hPa 0,0 l/m 14,4 km/h (3 Bft) W-NW 299 3,3 C 12,5 C 29,0 km/h (5 Bft)
30.04.2017 13:15 15,9 C 42 % 1012,5 hPa 0,0 l/m 13,5 km/h (3 Bft) W 268 3,0 C 12,8 C 29,0 km/h (5 Bft)
30.04.2017 13:00 15,7 C 45 % 1012,6 hPa 0,0 l/m 13,5 km/h (3 Bft) W 273 3,8 C 12,5 C 29,0 km/h (5 Bft)
30.04.2017 12:45 15,6 C 47 % 1012,8 hPa 0,0 l/m 12,1 km/h (2 Bft) W-NW 284 4,3 C 12,9 C 29,0 km/h (5 Bft)
30.04.2017 12:31 15,2 C 48 % 1013,0 hPa 0,0 l/m 12,3 km/h (3 Bft) W 277 4,3 C 12,4 C 27,4 km/h (4 Bft)
30.04.2017 12:15 14,6 C 49 % 1013,3 hPa 0,0 l/m 14,7 km/h (3 Bft) W-NW 289 4,0 C 10,8 C 27,4 km/h (4 Bft)
30.04.2017 12:00 14,6 C 50 % 1013,6 hPa 0,0 l/m 11,9 km/h (2 Bft) NW 326 4,3 C 11,9 C 27,4 km/h (4 Bft)
30.04.2017 11:45 13,9 C 51 % 1013,8 hPa 0,0 l/m 9,7 km/h (2 Bft) W 264 3,9 C 12,0 C 24,1 km/h (4 Bft)
30.04.2017 11:30 13,4 C 52 % 1014,0 hPa 0,0 l/m 11,5 km/h (2 Bft) N 349 3,7 C 10,6 C 24,1 km/h (4 Bft)
30.04.2017 11:15 13,0 C 52 % 1014,2 hPa 0,0 l/m 10,6 km/h (2 Bft) W-NW 301 3,4 C 10,6 C 27,4 km/h (4 Bft)
30.04.2017 11:00 12,8 C 52 % 1014,4 hPa 0,0 l/m 8,6 km/h (2 Bft) NW 320 3,2 C 11,4 C 22,5 km/h (4 Bft)
30.04.2017 10:45 12,4 C 53 % 1014,6 hPa 0,0 l/m 7,9 km/h (2 Bft) W-NW 299 3,1 C 11,4 C 19,3 km/h (3 Bft)
30.04.2017 10:30 11,9 C 54 % 1014,7 hPa 0,0 l/m 10,0 km/h (2 Bft) N-NW 345 2,9 C 9,7 C 24,1 km/h (4 Bft)
30.04.2017 10:15 11,6 C 54 % 1015,0 hPa 0,0 l/m 7,3 km/h (2 Bft) W 274 2,6 C 11,0 C 19,3 km/h (3 Bft)
30.04.2017 10:00 11,1 C 55 % 1015,1 hPa 0,0 l/m 9,5 km/h (2 Bft) W-SW 255 2,4 C 9,1 C 20,9 km/h (4 Bft)
30.04.2017 09:45 10,6 C 56 % 1015,4 hPa 0,0 l/m 6,6 km/h (2 Bft) W-NW 290 2,2 C 10,5 C 17,7 km/h (3 Bft)
30.04.2017 09:30 10,2 C 57 % 1015,6 hPa 0,0 l/m 7,9 km/h (2 Bft) W-NW 292 2,1 C 9,1 C 17,7 km/h (3 Bft)
30.04.2017 09:15 9,7 C 58 % 1015,7 hPa 0,0 l/m 5,0 km/h (1 Bft) NW 317 1,8 C 9,7 C 19,3 km/h (3 Bft)
30.04.2017 09:00 8,9 C 60 % 1015,7 hPa 0,0 l/m 6,8 km/h (2 Bft) W-NW 287 1,6 C 8,6 C 22,5 km/h (4 Bft)
30.04.2017 08:45 8,3 C 62 % 1015,9 hPa 0,0 l/m 7,7 km/h (2 Bft) NW 315 1,5 C 7,3 C 20,9 km/h (4 Bft)
30.04.2017 08:30 7,8 C 63 % 1016,0 hPa 0,0 l/m 7,0 km/h (2 Bft) W 272 1,2 C 7,3 C 16,1 km/h (3 Bft)
30.04.2017 08:15 7,2 C 64 % 1016,2 hPa 0,0 l/m 6,8 km/h (2 Bft) W-SW 247 0,9 C 6,9 C 17,7 km/h (3 Bft)
30.04.2017 08:00 6,7 C 66 % 1016,3 hPa 0,0 l/m 4,4 km/h (1 Bft) NW 306 0,8 C 6,7 C 17,7 km/h (3 Bft)
30.04.2017 07:45 6,2 C 67 % 1016,4 hPa 0,0 l/m 3,0 km/h (1 Bft) W-NW 295 0,5 C 6,2 C 17,7 km/h (3 Bft)
30.04.2017 07:30 5,8 C 68 % 1016,3 hPa 0,0 l/m 1,0 km/h (0 Bft) W 275 0,4 C 5,8 C 11,3 km/h (2 Bft)
30.04.2017 07:15 5,6 C 69 % 1016,4 hPa 0,0 l/m 3,4 km/h (1 Bft) W 277 0,4 C 5,6 C 14,5 km/h (3 Bft)
30.04.2017 07:00 5,2 C 70 % 1016,3 hPa 0,0 l/m 4,1 km/h (1 Bft) W-NW 301 0,2 C 5,2 C 16,1 km/h (3 Bft)
30.04.2017 06:45 5,0 C 70 % 1016,4 hPa 0,0 l/m 4,9 km/h (1 Bft) W 273 -0,0 C 5,0 C 17,7 km/h (3 Bft)
30.04.2017 06:30 4,8 C 71 % 1016,5 hPa 0,0 l/m 4,4 km/h (1 Bft) W-NW 302 -0,0 C 4,8 C 22,5 km/h (4 Bft)
30.04.2017 06:15 4,7 C 72 % 1016,7 hPa 0,0 l/m 2,7 km/h (1 Bft) W 277 0,1 C 4,7 C 12,9 km/h (3 Bft)
30.04.2017 06:00 4,8 C 71 % 1016,7 hPa 0,0 l/m 4,0 km/h (1 Bft) W 259 -0,0 C 4,8 C 14,5 km/h (3 Bft)
30.04.2017 05:45 4,8 C 72 % 1016,7 hPa 0,0 l/m 5,7 km/h (1 Bft) W-NW 292 0,2 C 4,8 C 16,1 km/h (3 Bft)
30.04.2017 05:30 4,8 C 73 % 1016,7 hPa 0,0 l/m 2,4 km/h (1 Bft) W 260 0,4 C 4,8 C 14,5 km/h (3 Bft)
30.04.2017 05:15 4,8 C 73 % 1016,8 hPa 0,0 l/m 3,2 km/h (1 Bft) W 274 0,4 C 4,8 C 14,5 km/h (3 Bft)
30.04.2017 05:00 4,8 C 73 % 1016,9 hPa 0,0 l/m 2,2 km/h (1 Bft) W-NW 282 0,4 C 4,8 C 12,9 km/h (3 Bft)
30.04.2017 04:45 4,7 C 74 % 1017,0 hPa 0,0 l/m 2,7 km/h (1 Bft) W-NW 293 0,5 C 4,7 C 12,9 km/h (3 Bft)
30.04.2017 04:30 4,4 C 75 % 1017,1 hPa 0,0 l/m 1,1 km/h (1 Bft) W-SW 258 0,4 C 4,4 C 6,4 km/h (2 Bft)
30.04.2017 04:15 4,5 C 74 % 1017,1 hPa 0,0 l/m 0,6 km/h (0 Bft) W-SW 250 0,3 C 4,5 C 6,4 km/h (2 Bft)
30.04.2017 04:00 4,8 C 73 % 1017,2 hPa 0,0 l/m 1,3 km/h (1 Bft) W 263 0,4 C 4,8 C 8,0 km/h (2 Bft)
30.04.2017 03:45 4,8 C 74 % 1017,2 hPa 0,0 l/m 2,1 km/h (1 Bft) W-NW 300 0,6 C 4,8 C 9,7 km/h (2 Bft)
30.04.2017 03:30 4,8 C 73 % 1017,2 hPa 0,0 l/m 0,5 km/h (0 Bft) W 279 0,4 C 4,8 C 4,8 km/h (1 Bft)
30.04.2017 03:15 5,3 C 71 % 1017,3 hPa 0,0 l/m 1,4 km/h (1 Bft) W 280 0,5 C 5,3 C 6,4 km/h (2 Bft)
30.04.2017 03:00 5,6 C 70 % 1017,3 hPa 0,0 l/m 2,7 km/h (1 Bft) W-NW 288 0,6 C 5,6 C 9,7 km/h (2 Bft)
_ Min-Zeit 04:30 16:45 02:15 - 03:30 - - 06:45 04:30 03:30
Minimum _ 4,3 C 39 % 1007,3 hPa - 0,5 km/h (0 Bft) - - -0,0 C 4,4 C 4,8 km/h (1 Bft)
_ Max-Zeit 16:45 04:30 03:00 03:00 16:00 - - 12:45 20:46 16:00
Maximum _ 17,4 C 75 % 1017,3 hPa 0,0 l/m 20,8 km/h
NW (4 Bft)
- - 4,3 C 15,3 C 49,9 km/h
NW (6 Bft)
Durchschnitt _ 11,7 C 54 % 1012,3 hPa #0,0 l/m 8,9 km/h (2 Bft) W - 2,4 C 10,1 C 23,7 km/h (4 Bft)